sensor_id;sensor_type;location;lat;lon;timestamp;P1;durP1;ratioP1;P2;durP2;ratioP2
8331;SDS011;4203;48.144;14.118;2023-07-24T00:00:21;5.40;;;4.90;;
8331;SDS011;4203;48.144;14.118;2023-07-24T00:02:49;8.30;;;5.30;;
8331;SDS011;4203;48.144;14.118;2023-07-24T00:05:19;5.95;;;4.70;;
8331;SDS011;4203;48.144;14.118;2023-07-24T00:07:48;5.05;;;4.55;;
8331;SDS011;4203;48.144;14.118;2023-07-24T00:10:15;5.38;;;4.68;;
8331;SDS011;4203;48.144;14.118;2023-07-24T00:12:43;7.13;;;5.20;;
8331;SDS011;4203;48.144;14.118;2023-07-24T00:15:10;8.52;;;5.47;;
8331;SDS011;4203;48.144;14.118;2023-07-24T00:17:37;5.18;;;4.63;;
8331;SDS011;4203;48.144;14.118;2023-07-24T00:20:05;5.57;;;5.07;;
8331;SDS011;4203;48.144;14.118;2023-07-24T00:22:33;6.22;;;4.80;;
8331;SDS011;4203;48.144;14.118;2023-07-24T00:25:02;5.40;;;4.90;;
8331;SDS011;4203;48.144;14.118;2023-07-24T00:27:31;7.20;;;5.30;;
8331;SDS011;4203;48.144;14.118;2023-07-24T00:29:58;5.60;;;4.95;;
8331;SDS011;4203;48.144;14.118;2023-07-24T00:32:25;7.68;;;5.03;;
8331;SDS011;4203;48.144;14.118;2023-07-24T00:34:54;6.82;;;5.63;;
8331;SDS011;4203;48.144;14.118;2023-07-24T00:37:21;6.82;;;5.10;;
8331;SDS011;4203;48.144;14.118;2023-07-24T00:39:49;8.32;;;5.30;;
8331;SDS011;4203;48.144;14.118;2023-07-24T00:42:17;5.72;;;5.22;;
8331;SDS011;4203;48.144;14.118;2023-07-24T00:44:45;8.30;;;5.32;;
8331;SDS011;4203;48.144;14.118;2023-07-24T00:47:12;6.63;;;5.25;;
8331;SDS011;4203;48.144;14.118;2023-07-24T00:49:39;6.22;;;5.45;;
8331;SDS011;4203;48.144;14.118;2023-07-24T00:52:07;5.30;;;4.80;;
8331;SDS011;4203;48.144;14.118;2023-07-24T00:54:35;5.22;;;4.72;;
8331;SDS011;4203;48.144;14.118;2023-07-24T00:57:03;6.18;;;5.13;;
8331;SDS011;4203;48.144;14.118;2023-07-24T00:59:33;5.47;;;4.97;;
8331;SDS011;4203;48.144;14.118;2023-07-24T01:02:00;8.50;;;5.10;;
8331;SDS011;4203;48.144;14.118;2023-07-24T01:04:28;6.18;;;5.38;;
8331;SDS011;4203;48.144;14.118;2023-07-24T01:06:55;5.13;;;4.68;;
8331;SDS011;4203;48.144;14.118;2023-07-24T01:09:22;6.25;;;5.57;;
8331;SDS011;4203;48.144;14.118;2023-07-24T01:11:50;6.32;;;5.72;;
8331;SDS011;4203;48.144;14.118;2023-07-24T01:14:25;6.45;;;5.28;;
8331;SDS011;4203;48.144;14.118;2023-07-24T01:16:59;6.30;;;5.70;;
8331;SDS011;4203;48.144;14.118;2023-07-24T01:19:33;7.10;;;5.75;;
8331;SDS011;4203;48.144;14.118;2023-07-24T01:22:08;6.00;;;5.40;;
8331;SDS011;4203;48.144;14.118;2023-07-24T01:24:47;9.18;;;5.65;;
8331;SDS011;4203;48.144;14.118;2023-07-24T01:27:25;6.20;;;5.60;;
8331;SDS011;4203;48.144;14.118;2023-07-24T01:29:53;6.10;;;5.50;;
8331;SDS011;4203;48.144;14.118;2023-07-24T01:32:20;8.40;;;5.47;;
8331;SDS011;4203;48.144;14.118;2023-07-24T01:34:47;6.20;;;5.55;;
8331;SDS011;4203;48.144;14.118;2023-07-24T01:37:15;5.78;;;5.28;;
8331;SDS011;4203;48.144;14.118;2023-07-24T01:39:44;9.70;;;5.65;;
8331;SDS011;4203;48.144;14.118;2023-07-24T01:42:12;7.07;;;6.05;;
8331;SDS011;4203;48.144;14.118;2023-07-24T01:44:42;5.40;;;4.90;;
8331;SDS011;4203;48.144;14.118;2023-07-24T01:47:09;6.72;;;5.10;;
8331;SDS011;4203;48.144;14.118;2023-07-24T01:49:36;5.93;;;5.05;;
8331;SDS011;4203;48.144;14.118;2023-07-24T01:52:04;6.10;;;5.22;;
8331;SDS011;4203;48.144;14.118;2023-07-24T01:54:32;5.93;;;5.40;;
8331;SDS011;4203;48.144;14.118;2023-07-24T01:56:59;6.95;;;6.00;;
8331;SDS011;4203;48.144;14.118;2023-07-24T01:59:26;7.50;;;5.78;;
8331;SDS011;4203;48.144;14.118;2023-07-24T02:01:55;11.68;;;5.85;;
8331;SDS011;4203;48.144;14.118;2023-07-24T02:04:22;7.15;;;5.82;;
8331;SDS011;4203;48.144;14.118;2023-07-24T02:06:49;10.32;;;5.70;;
8331;SDS011;4203;48.144;14.118;2023-07-24T02:09:17;9.80;;;5.88;;
8331;SDS011;4203;48.144;14.118;2023-07-24T02:11:45;5.75;;;5.13;;
8331;SDS011;4203;48.144;14.118;2023-07-24T02:14:13;5.35;;;4.95;;
8331;SDS011;4203;48.144;14.118;2023-07-24T02:16:41;6.05;;;5.30;;
8331;SDS011;4203;48.144;14.118;2023-07-24T02:19:10;5.63;;;5.05;;
8331;SDS011;4203;48.144;14.118;2023-07-24T02:21:37;10.07;;;5.65;;
8331;SDS011;4203;48.144;14.118;2023-07-24T02:24:05;6.18;;;5.10;;
8331;SDS011;4203;48.144;14.118;2023-07-24T02:26:33;9.70;;;4.95;;
8331;SDS011;4203;48.144;14.118;2023-07-24T02:29:00;7.63;;;4.95;;
8331;SDS011;4203;48.144;14.118;2023-07-24T02:31:27;6.45;;;5.45;;
8331;SDS011;4203;48.144;14.118;2023-07-24T02:33:55;5.90;;;4.78;;
8331;SDS011;4203;48.144;14.118;2023-07-24T02:36:23;6.72;;;5.47;;
8331;SDS011;4203;48.144;14.118;2023-07-24T02:38:51;5.90;;;5.32;;
8331;SDS011;4203;48.144;14.118;2023-07-24T02:41:18;7.78;;;5.93;;
8331;SDS011;4203;48.144;14.118;2023-07-24T02:43:45;7.70;;;5.43;;
8331;SDS011;4203;48.144;14.118;2023-07-24T02:46:13;8.90;;;6.00;;
8331;SDS011;4203;48.144;14.118;2023-07-24T02:48:40;5.28;;;4.78;;
8331;SDS011;4203;48.144;14.118;2023-07-24T02:51:07;6.20;;;5.60;;
8331;SDS011;4203;48.144;14.118;2023-07-24T02:53:36;6.15;;;5.65;;
8331;SDS011;4203;48.144;14.118;2023-07-24T02:56:04;5.68;;;5.18;;
8331;SDS011;4203;48.144;14.118;2023-07-24T02:58:31;7.00;;;5.30;;
8331;SDS011;4203;48.144;14.118;2023-07-24T03:01:02;6.75;;;5.82;;
8331;SDS011;4203;48.144;14.118;2023-07-24T03:03:31;7.00;;;5.55;;
8331;SDS011;4203;48.144;14.118;2023-07-24T03:05:58;8.82;;;6.20;;
8331;SDS011;4203;48.144;14.118;2023-07-24T03:08:26;9.25;;;5.97;;
8331;SDS011;4203;48.144;14.118;2023-07-24T03:10:55;9.70;;;5.95;;
8331;SDS011;4203;48.144;14.118;2023-07-24T03:13:23;12.43;;;5.70;;
8331;SDS011;4203;48.144;14.118;2023-07-24T03:15:53;6.97;;;5.82;;
8331;SDS011;4203;48.144;14.118;2023-07-24T03:18:20;5.88;;;5.28;;
8331;SDS011;4203;48.144;14.118;2023-07-24T03:20:48;8.02;;;5.30;;
8331;SDS011;4203;48.144;14.118;2023-07-24T03:23:16;7.60;;;5.75;;
8331;SDS011;4203;48.144;14.118;2023-07-24T03:25:43;8.32;;;5.97;;
8331;SDS011;4203;48.144;14.118;2023-07-24T03:28:12;7.15;;;6.03;;
8331;SDS011;4203;48.144;14.118;2023-07-24T03:30:39;6.93;;;5.50;;
8331;SDS011;4203;48.144;14.118;2023-07-24T03:33:06;7.13;;;5.32;;
8331;SDS011;4203;48.144;14.118;2023-07-24T03:35:35;8.20;;;5.80;;
8331;SDS011;4203;48.144;14.118;2023-07-24T03:38:02;7.47;;;5.70;;
8331;SDS011;4203;48.144;14.118;2023-07-24T03:40:29;6.68;;;5.50;;
8331;SDS011;4203;48.144;14.118;2023-07-24T03:42:56;7.30;;;5.65;;
8331;SDS011;4203;48.144;14.118;2023-07-24T03:45:25;8.93;;;5.68;;
8331;SDS011;4203;48.144;14.118;2023-07-24T03:47:53;6.00;;;5.50;;
8331;SDS011;4203;48.144;14.118;2023-07-24T03:50:20;6.32;;;5.22;;
8331;SDS011;4203;48.144;14.118;2023-07-24T03:52:48;7.60;;;5.88;;
8331;SDS011;4203;48.144;14.118;2023-07-24T03:55:15;7.07;;;5.40;;
8331;SDS011;4203;48.144;14.118;2023-07-24T03:57:42;6.13;;;5.60;;
8331;SDS011;4203;48.144;14.118;2023-07-24T04:00:10;7.75;;;5.28;;
8331;SDS011;4203;48.144;14.118;2023-07-24T04:02:40;13.35;;;6.22;;
8331;SDS011;4203;48.144;14.118;2023-07-24T04:05:08;15.73;;;7.25;;
8331;SDS011;4203;48.144;14.118;2023-07-24T04:07:35;8.35;;;6.35;;
8331;SDS011;4203;48.144;14.118;2023-07-24T04:10:03;13.00;;;6.93;;
8331;SDS011;4203;48.144;14.118;2023-07-24T04:12:32;10.77;;;6.82;;
8331;SDS011;4203;48.144;14.118;2023-07-24T04:15:00;9.20;;;6.63;;
8331;SDS011;4203;48.144;14.118;2023-07-24T04:17:27;6.53;;;5.93;;
8331;SDS011;4203;48.144;14.118;2023-07-24T04:19:56;6.65;;;5.90;;
8331;SDS011;4203;48.144;14.118;2023-07-24T04:22:23;7.60;;;6.78;;
8331;SDS011;4203;48.144;14.118;2023-07-24T04:24:50;8.93;;;6.65;;
8331;SDS011;4203;48.144;14.118;2023-07-24T04:27:17;7.18;;;6.53;;
8331;SDS011;4203;48.144;14.118;2023-07-24T04:29:45;7.32;;;6.65;;
8331;SDS011;4203;48.144;14.118;2023-07-24T04:32:12;7.97;;;6.90;;
8331;SDS011;4203;48.144;14.118;2023-07-24T04:34:40;13.88;;;8.40;;
8331;SDS011;4203;48.144;14.118;2023-07-24T04:37:09;11.25;;;7.32;;
8331;SDS011;4203;48.144;14.118;2023-07-24T04:39:38;10.57;;;6.70;;
8331;SDS011;4203;48.144;14.118;2023-07-24T04:42:05;8.80;;;6.32;;
8331;SDS011;4203;48.144;14.118;2023-07-24T04:44:33;8.23;;;7.05;;
8331;SDS011;4203;48.144;14.118;2023-07-24T04:47:00;7.40;;;6.70;;
8331;SDS011;4203;48.144;14.118;2023-07-24T04:49:28;8.05;;;6.90;;
8331;SDS011;4203;48.144;14.118;2023-07-24T04:51:56;7.25;;;6.55;;
8331;SDS011;4203;48.144;14.118;2023-07-24T04:54:24;8.10;;;6.60;;
8331;SDS011;4203;48.144;14.118;2023-07-24T04:56:52;7.40;;;6.45;;
8331;SDS011;4203;48.144;14.118;2023-07-24T04:59:19;6.95;;;6.32;;
8331;SDS011;4203;48.144;14.118;2023-07-24T05:01:46;6.93;;;5.82;;
8331;SDS011;4203;48.144;14.118;2023-07-24T05:04:14;8.07;;;6.50;;
8331;SDS011;4203;48.144;14.118;2023-07-24T05:06:41;7.55;;;6.13;;
8331;SDS011;4203;48.144;14.118;2023-07-24T05:09:08;9.70;;;6.72;;
8331;SDS011;4203;48.144;14.118;2023-07-24T05:11:37;8.50;;;6.25;;
8331;SDS011;4203;48.144;14.118;2023-07-24T05:14:04;7.30;;;6.55;;
8331;SDS011;4203;48.144;14.118;2023-07-24T05:16:32;7.15;;;6.45;;
8331;SDS011;4203;48.144;14.118;2023-07-24T05:18:59;8.05;;;6.57;;
8331;SDS011;4203;48.144;14.118;2023-07-24T05:21:26;7.40;;;6.60;;
8331;SDS011;4203;48.144;14.118;2023-07-24T05:23:53;12.73;;;7.40;;
8331;SDS011;4203;48.144;14.118;2023-07-24T05:26:21;7.30;;;6.60;;
8331;SDS011;4203;48.144;14.118;2023-07-24T05:28:49;10.68;;;6.90;;
8331;SDS011;4203;48.144;14.118;2023-07-24T05:31:18;11.70;;;6.13;;
8331;SDS011;4203;48.144;14.118;2023-07-24T05:33:45;8.10;;;7.32;;
8331;SDS011;4203;48.144;14.118;2023-07-24T05:36:12;7.30;;;6.40;;
8331;SDS011;4203;48.144;14.118;2023-07-24T05:38:39;14.95;;;8.75;;
8331;SDS011;4203;48.144;14.118;2023-07-24T05:41:07;8.38;;;7.20;;
8331;SDS011;4203;48.144;14.118;2023-07-24T05:43:34;11.23;;;7.63;;
8331;SDS011;4203;48.144;14.118;2023-07-24T05:46:03;11.82;;;7.80;;
8331;SDS011;4203;48.144;14.118;2023-07-24T05:48:30;10.32;;;7.22;;
8331;SDS011;4203;48.144;14.118;2023-07-24T05:50:57;14.35;;;9.23;;
8331;SDS011;4203;48.144;14.118;2023-07-24T05:53:25;18.75;;;10.88;;
8331;SDS011;4203;48.144;14.118;2023-07-24T05:55:58;15.80;;;9.73;;
8331;SDS011;4203;48.144;14.118;2023-07-24T05:58:27;14.48;;;9.23;;
8331;SDS011;4203;48.144;14.118;2023-07-24T06:00:54;11.00;;;9.65;;
8331;SDS011;4203;48.144;14.118;2023-07-24T06:03:23;11.35;;;9.00;;
8331;SDS011;4203;48.144;14.118;2023-07-24T06:05:51;9.88;;;8.75;;
8331;SDS011;4203;48.144;14.118;2023-07-24T06:08:19;11.73;;;7.82;;
8331;SDS011;4203;48.144;14.118;2023-07-24T06:10:46;9.60;;;8.13;;
8331;SDS011;4203;48.144;14.118;2023-07-24T06:13:14;11.30;;;8.32;;
8331;SDS011;4203;48.144;14.118;2023-07-24T06:15:41;9.65;;;7.97;;
8331;SDS011;4203;48.144;14.118;2023-07-24T06:18:09;10.23;;;7.97;;
8331;SDS011;4203;48.144;14.118;2023-07-24T06:20:38;11.27;;;7.63;;
8331;SDS011;4203;48.144;14.118;2023-07-24T06:23:05;9.80;;;7.90;;
8331;SDS011;4203;48.144;14.118;2023-07-24T06:25:33;9.50;;;7.60;;
8331;SDS011;4203;48.144;14.118;2023-07-24T06:28:00;12.88;;;7.97;;
8331;SDS011;4203;48.144;14.118;2023-07-24T06:30:27;8.98;;;7.63;;
8331;SDS011;4203;48.144;14.118;2023-07-24T06:32:54;8.20;;;7.40;;
8331;SDS011;4203;48.144;14.118;2023-07-24T06:35:21;12.02;;;7.85;;
8331;SDS011;4203;48.144;14.118;2023-07-24T06:37:50;15.82;;;7.53;;
8331;SDS011;4203;48.144;14.118;2023-07-24T06:40:17;11.75;;;7.38;;
8331;SDS011;4203;48.144;14.118;2023-07-24T06:42:45;9.95;;;6.85;;
8331;SDS011;4203;48.144;14.118;2023-07-24T06:45:12;10.52;;;6.88;;
8331;SDS011;4203;48.144;14.118;2023-07-24T06:47:40;9.55;;;7.55;;
8331;SDS011;4203;48.144;14.118;2023-07-24T06:50:07;8.75;;;7.10;;
8331;SDS011;4203;48.144;14.118;2023-07-24T06:52:34;10.50;;;7.45;;
8331;SDS011;4203;48.144;14.118;2023-07-24T06:55:04;8.45;;;7.20;;
8331;SDS011;4203;48.144;14.118;2023-07-24T06:57:32;8.80;;;7.78;;
8331;SDS011;4203;48.144;14.118;2023-07-24T06:59:59;20.85;;;7.72;;
8331;SDS011;4203;48.144;14.118;2023-07-24T07:02:26;9.88;;;7.60;;
8331;SDS011;4203;48.144;14.118;2023-07-24T07:04:54;8.93;;;7.22;;
8331;SDS011;4203;48.144;14.118;2023-07-24T07:07:22;11.55;;;7.88;;
8331;SDS011;4203;48.144;14.118;2023-07-24T07:09:49;9.45;;;7.40;;
8331;SDS011;4203;48.144;14.118;2023-07-24T07:12:17;9.70;;;7.05;;
8331;SDS011;4203;48.144;14.118;2023-07-24T07:14:46;10.02;;;7.57;;
8331;SDS011;4203;48.144;14.118;2023-07-24T07:17:13;10.82;;;6.88;;
8331;SDS011;4203;48.144;14.118;2023-07-24T07:19:40;9.45;;;6.97;;
8331;SDS011;4203;48.144;14.118;2023-07-24T07:22:07;8.48;;;6.60;;
8331;SDS011;4203;48.144;14.118;2023-07-24T07:24:35;10.75;;;7.90;;
8331;SDS011;4203;48.144;14.118;2023-07-24T07:27:02;7.25;;;6.60;;
8331;SDS011;4203;48.144;14.118;2023-07-24T07:29:31;9.02;;;7.22;;
8331;SDS011;4203;48.144;14.118;2023-07-24T07:31:58;7.47;;;6.68;;
8331;SDS011;4203;48.144;14.118;2023-07-24T07:34:25;11.43;;;7.22;;
8331;SDS011;4203;48.144;14.118;2023-07-24T07:36:53;9.15;;;6.60;;
8331;SDS011;4203;48.144;14.118;2023-07-24T07:39:20;7.68;;;6.93;;
8331;SDS011;4203;48.144;14.118;2023-07-24T07:41:47;8.55;;;6.70;;
8331;SDS011;4203;48.144;14.118;2023-07-24T07:44:15;7.70;;;6.90;;
8331;SDS011;4203;48.144;14.118;2023-07-24T07:46:43;9.02;;;6.57;;
8331;SDS011;4203;48.144;14.118;2023-07-24T07:49:10;7.30;;;6.20;;
8331;SDS011;4203;48.144;14.118;2023-07-24T07:51:38;8.70;;;6.50;;
8331;SDS011;4203;48.144;14.118;2023-07-24T07:54:05;7.57;;;6.43;;
8331;SDS011;4203;48.144;14.118;2023-07-24T07:56:32;6.35;;;5.75;;
8331;SDS011;4203;48.144;14.118;2023-07-24T07:58:59;7.40;;;6.60;;
8331;SDS011;4203;48.144;14.118;2023-07-24T08:01:27;8.13;;;6.15;;
8331;SDS011;4203;48.144;14.118;2023-07-24T08:03:55;7.25;;;6.38;;
8331;SDS011;4203;48.144;14.118;2023-07-24T08:06:23;7.95;;;5.90;;
8331;SDS011;4203;48.144;14.118;2023-07-24T08:08:50;6.82;;;5.93;;
8331;SDS011;4203;48.144;14.118;2023-07-24T08:11:17;5.45;;;4.95;;
8331;SDS011;4203;48.144;14.118;2023-07-24T08:13:44;10.25;;;5.55;;
8331;SDS011;4203;48.144;14.118;2023-07-24T08:16:12;6.22;;;5.50;;
8331;SDS011;4203;48.144;14.118;2023-07-24T08:18:44;8.23;;;5.97;;
8331;SDS011;4203;48.144;14.118;2023-07-24T08:21:18;7.40;;;5.53;;
8331;SDS011;4203;48.144;14.118;2023-07-24T08:23:45;6.15;;;5.55;;
8331;SDS011;4203;48.144;14.118;2023-07-24T08:26:12;6.47;;;5.35;;
8331;SDS011;4203;48.144;14.118;2023-07-24T08:28:39;9.50;;;6.00;;
8331;SDS011;4203;48.144;14.118;2023-07-24T08:31:08;6.75;;;5.68;;
8331;SDS011;4203;48.144;14.118;2023-07-24T08:33:35;8.85;;;5.90;;
8331;SDS011;4203;48.144;14.118;2023-07-24T08:36:03;7.15;;;5.78;;
8331;SDS011;4203;48.144;14.118;2023-07-24T08:38:35;5.85;;;5.35;;
8331;SDS011;4203;48.144;14.118;2023-07-24T08:41:03;5.70;;;5.20;;
8331;SDS011;4203;48.144;14.118;2023-07-24T08:43:32;7.60;;;5.90;;
8331;SDS011;4203;48.144;14.118;2023-07-24T08:46:00;6.13;;;5.35;;
8331;SDS011;4203;48.144;14.118;2023-07-24T08:48:29;5.80;;;5.13;;
8331;SDS011;4203;48.144;14.118;2023-07-24T08:51:00;7.35;;;5.32;;
8331;SDS011;4203;48.144;14.118;2023-07-24T08:53:28;6.63;;;6.03;;
8331;SDS011;4203;48.144;14.118;2023-07-24T08:55:57;7.10;;;5.72;;
8331;SDS011;4203;48.144;14.118;2023-07-24T08:58:26;7.32;;;5.70;;
8331;SDS011;4203;48.144;14.118;2023-07-24T09:00:54;7.57;;;5.80;;
8331;SDS011;4203;48.144;14.118;2023-07-24T09:03:22;6.25;;;5.32;;
8331;SDS011;4203;48.144;14.118;2023-07-24T09:05:50;8.43;;;5.63;;
8331;SDS011;4203;48.144;14.118;2023-07-24T09:08:37;6.03;;;5.43;;
8331;SDS011;4203;48.144;14.118;2023-07-24T09:11:12;8.27;;;5.93;;
8331;SDS011;4203;48.144;14.118;2023-07-24T09:13:44;6.05;;;5.55;;
8331;SDS011;4203;48.144;14.118;2023-07-24T09:16:21;6.30;;;5.70;;
8331;SDS011;4203;48.144;14.118;2023-07-24T09:18:53;7.00;;;5.88;;
8331;SDS011;4203;48.144;14.118;2023-07-24T09:21:28;6.28;;;5.32;;
8331;SDS011;4203;48.144;14.118;2023-07-24T09:23:57;6.13;;;5.55;;
8331;SDS011;4203;48.144;14.118;2023-07-24T09:26:36;5.95;;;5.45;;
8331;SDS011;4203;48.144;14.118;2023-07-24T09:29:13;10.50;;;6.15;;
8331;SDS011;4203;48.144;14.118;2023-07-24T09:31:41;7.25;;;6.55;;
8331;SDS011;4203;48.144;14.118;2023-07-24T09:34:13;6.53;;;5.93;;
8331;SDS011;4203;48.144;14.118;2023-07-24T09:36:42;6.90;;;6.20;;
8331;SDS011;4203;48.144;14.118;2023-07-24T09:39:09;6.75;;;6.07;;
8331;SDS011;4203;48.144;14.118;2023-07-24T09:41:38;6.97;;;6.28;;
8331;SDS011;4203;48.144;14.118;2023-07-24T09:44:07;6.40;;;5.85;;
8331;SDS011;4203;48.144;14.118;2023-07-24T09:46:34;7.25;;;6.30;;
8331;SDS011;4203;48.144;14.118;2023-07-24T09:49:01;7.75;;;5.90;;
8331;SDS011;4203;48.144;14.118;2023-07-24T09:51:29;6.50;;;5.88;;
8331;SDS011;4203;48.144;14.118;2023-07-24T09:53:58;6.40;;;5.82;;
8331;SDS011;4203;48.144;14.118;2023-07-24T09:56:32;5.90;;;5.40;;
8331;SDS011;4203;48.144;14.118;2023-07-24T09:59:01;6.53;;;5.93;;
8331;SDS011;4203;48.144;14.118;2023-07-24T10:01:30;8.05;;;5.90;;
8331;SDS011;4203;48.144;14.118;2023-07-24T10:03:58;8.15;;;5.63;;
8331;SDS011;4203;48.144;14.118;2023-07-24T10:06:27;6.57;;;5.97;;
8331;SDS011;4203;48.144;14.118;2023-07-24T10:08:56;6.88;;;6.13;;
8331;SDS011;4203;48.144;14.118;2023-07-24T10:11:25;7.45;;;6.03;;
8331;SDS011;4203;48.144;14.118;2023-07-24T10:13:53;7.13;;;6.15;;
8331;SDS011;4203;48.144;14.118;2023-07-24T10:16:22;8.93;;;5.97;;
8331;SDS011;4203;48.144;14.118;2023-07-24T10:18:49;7.07;;;6.35;;
8331;SDS011;4203;48.144;14.118;2023-07-24T10:21:16;7.38;;;6.68;;
8331;SDS011;4203;48.144;14.118;2023-07-24T10:23:44;6.90;;;6.22;;
8331;SDS011;4203;48.144;14.118;2023-07-24T10:26:12;6.68;;;5.95;;
8331;SDS011;4203;48.144;14.118;2023-07-24T10:28:41;8.52;;;6.30;;
8331;SDS011;4203;48.144;14.118;2023-07-24T10:31:18;10.38;;;7.03;;
8331;SDS011;4203;48.144;14.118;2023-07-24T10:33:48;8.25;;;6.40;;
8331;SDS011;4203;48.144;14.118;2023-07-24T10:36:16;8.10;;;6.72;;
8331;SDS011;4203;48.144;14.118;2023-07-24T10:38:45;9.20;;;6.45;;
8331;SDS011;4203;48.144;14.118;2023-07-24T10:41:13;9.43;;;6.57;;
8331;SDS011;4203;48.144;14.118;2023-07-24T10:43:41;10.75;;;7.35;;
8331;SDS011;4203;48.144;14.118;2023-07-24T10:46:09;7.25;;;6.50;;
8331;SDS011;4203;48.144;14.118;2023-07-24T10:48:37;9.02;;;6.70;;
8331;SDS011;4203;48.144;14.118;2023-07-24T10:51:10;8.98;;;6.18;;
8331;SDS011;4203;48.144;14.118;2023-07-24T10:53:41;7.55;;;6.35;;
8331;SDS011;4203;48.144;14.118;2023-07-24T10:56:09;10.98;;;7.35;;
8331;SDS011;4203;48.144;14.118;2023-07-24T10:58:36;10.43;;;6.70;;
8331;SDS011;4203;48.144;14.118;2023-07-24T11:01:03;9.52;;;6.43;;
8331;SDS011;4203;48.144;14.118;2023-07-24T11:03:31;6.82;;;6.22;;
8331;SDS011;4203;48.144;14.118;2023-07-24T11:05:59;7.80;;;6.70;;
8331;SDS011;4203;48.144;14.118;2023-07-24T11:08:28;9.25;;;6.45;;
8331;SDS011;4203;48.144;14.118;2023-07-24T11:10:56;6.47;;;5.88;;
8331;SDS011;4203;48.144;14.118;2023-07-24T11:13:27;9.05;;;6.20;;
8331;SDS011;4203;48.144;14.118;2023-07-24T11:15:55;18.00;;;15.30;;
8331;SDS011;4203;48.144;14.118;2023-07-24T11:18:22;8.68;;;7.88;;
8331;SDS011;4203;48.144;14.118;2023-07-24T11:20:52;8.43;;;6.70;;
8331;SDS011;4203;48.144;14.118;2023-07-24T11:23:21;14.10;;;12.90;;
8331;SDS011;4203;48.144;14.118;2023-07-24T11:25:51;9.75;;;7.22;;
8331;SDS011;4203;48.144;14.118;2023-07-24T11:28:19;10.82;;;6.50;;
8331;SDS011;4203;48.144;14.118;2023-07-24T11:30:47;11.95;;;7.13;;
8331;SDS011;4203;48.144;14.118;2023-07-24T11:33:16;7.32;;;6.57;;
8331;SDS011;4203;48.144;14.118;2023-07-24T11:35:45;9.70;;;6.68;;
8331;SDS011;4203;48.144;14.118;2023-07-24T11:38:13;7.97;;;7.05;;
8331;SDS011;4203;48.144;14.118;2023-07-24T11:40:46;7.60;;;6.90;;
8331;SDS011;4203;48.144;14.118;2023-07-24T11:43:19;8.13;;;6.97;;
8331;SDS011;4203;48.144;14.118;2023-07-24T11:45:48;7.43;;;6.75;;
8331;SDS011;4203;48.144;14.118;2023-07-24T11:48:17;8.18;;;7.32;;
8331;SDS011;4203;48.144;14.118;2023-07-24T11:50:46;6.95;;;6.25;;
8331;SDS011;4203;48.144;14.118;2023-07-24T11:53:20;6.72;;;6.13;;
8331;SDS011;4203;48.144;14.118;2023-07-24T11:55:49;7.68;;;6.88;;
8331;SDS011;4203;48.144;14.118;2023-07-24T11:58:18;7.18;;;6.47;;
8331;SDS011;4203;48.144;14.118;2023-07-24T12:00:47;9.70;;;6.97;;
8331;SDS011;4203;48.144;14.118;2023-07-24T12:03:15;7.32;;;6.60;;
8331;SDS011;4203;48.144;14.118;2023-07-24T12:05:46;6.97;;;6.28;;
8331;SDS011;4203;48.144;14.118;2023-07-24T12:08:13;6.78;;;6.07;;
8331;SDS011;4203;48.144;14.118;2023-07-24T12:10:42;6.68;;;6.07;;
8331;SDS011;4203;48.144;14.118;2023-07-24T12:13:10;9.45;;;6.85;;
8331;SDS011;4203;48.144;14.118;2023-07-24T12:15:38;6.80;;;6.20;;
8331;SDS011;4203;48.144;14.118;2023-07-24T12:18:06;8.93;;;6.10;;
8331;SDS011;4203;48.144;14.118;2023-07-24T12:20:33;6.68;;;6.07;;
8331;SDS011;4203;48.144;14.118;2023-07-24T12:23:01;7.40;;;5.97;;
8331;SDS011;4203;48.144;14.118;2023-07-24T12:25:29;6.80;;;5.20;;
8331;SDS011;4203;48.144;14.118;2023-07-24T12:27:57;6.50;;;5.78;;
8331;SDS011;4203;48.144;14.118;2023-07-24T12:30:24;6.65;;;5.82;;
8331;SDS011;4203;48.144;14.118;2023-07-24T12:32:53;6.55;;;5.80;;
8331;SDS011;4203;48.144;14.118;2023-07-24T12:35:20;6.35;;;5.75;;
8331;SDS011;4203;48.144;14.118;2023-07-24T12:37:47;6.05;;;5.25;;
8331;SDS011;4203;48.144;14.118;2023-07-24T12:40:15;7.43;;;5.47;;
8331;SDS011;4203;48.144;14.118;2023-07-24T12:42:42;6.28;;;5.68;;
8331;SDS011;4203;48.144;14.118;2023-07-24T12:45:12;6.13;;;5.53;;
8331;SDS011;4203;48.144;14.118;2023-07-24T12:47:39;5.10;;;4.70;;
8331;SDS011;4203;48.144;14.118;2023-07-24T12:50:08;6.72;;;5.07;;
8331;SDS011;4203;48.144;14.118;2023-07-24T12:52:36;6.05;;;5.55;;
8331;SDS011;4203;48.144;14.118;2023-07-24T12:55:03;5.75;;;5.25;;
8331;SDS011;4203;48.144;14.118;2023-07-24T12:57:31;5.60;;;4.95;;
8331;SDS011;4203;48.144;14.118;2023-07-24T12:59:58;5.40;;;4.90;;
8331;SDS011;4203;48.144;14.118;2023-07-24T13:02:25;6.05;;;5.45;;
8331;SDS011;4203;48.144;14.118;2023-07-24T13:04:53;5.63;;;5.00;;
8331;SDS011;4203;48.144;14.118;2023-07-24T13:07:24;8.38;;;5.28;;
8331;SDS011;4203;48.144;14.118;2023-07-24T13:09:51;8.48;;;5.20;;
8331;SDS011;4203;48.144;14.118;2023-07-24T13:12:18;5.85;;;5.35;;
8331;SDS011;4203;48.144;14.118;2023-07-24T13:14:46;5.50;;;5.00;;
8331;SDS011;4203;48.144;14.118;2023-07-24T13:17:13;5.95;;;5.35;;
8331;SDS011;4203;48.144;14.118;2023-07-24T13:19:40;12.02;;;5.43;;
8331;SDS011;4203;48.144;14.118;2023-07-24T13:22:08;5.40;;;4.90;;
8331;SDS011;4203;48.144;14.118;2023-07-24T13:24:36;6.45;;;5.85;;
8331;SDS011;4203;48.144;14.118;2023-07-24T13:27:07;5.22;;;4.82;;
8331;SDS011;4203;48.144;14.118;2023-07-24T13:29:34;6.32;;;5.13;;
8331;SDS011;4203;48.144;14.118;2023-07-24T13:32:01;6.75;;;5.38;;
8331;SDS011;4203;48.144;14.118;2023-07-24T13:34:29;6.40;;;5.70;;
8331;SDS011;4203;48.144;14.118;2023-07-24T13:36:56;6.60;;;5.40;;
8331;SDS011;4203;48.144;14.118;2023-07-24T13:39:25;5.50;;;5.00;;
8331;SDS011;4203;48.144;14.118;2023-07-24T13:41:55;6.07;;;5.57;;
8331;SDS011;4203;48.144;14.118;2023-07-24T13:44:22;7.68;;;6.60;;
8331;SDS011;4203;48.144;14.118;2023-07-24T13:46:50;6.72;;;5.80;;
8331;SDS011;4203;48.144;14.118;2023-07-24T13:49:17;5.82;;;5.32;;
8331;SDS011;4203;48.144;14.118;2023-07-24T13:51:44;5.68;;;5.18;;
8331;SDS011;4203;48.144;14.118;2023-07-24T13:54:11;5.95;;;5.45;;
8331;SDS011;4203;48.144;14.118;2023-07-24T13:56:38;7.43;;;5.82;;
8331;SDS011;4203;48.144;14.118;2023-07-24T13:59:07;7.28;;;5.53;;
8331;SDS011;4203;48.144;14.118;2023-07-24T14:01:34;6.50;;;5.90;;
8331;SDS011;4203;48.144;14.118;2023-07-24T14:04:02;6.93;;;6.20;;
8331;SDS011;4203;48.144;14.118;2023-07-24T14:06:29;6.72;;;6.13;;
8331;SDS011;4203;48.144;14.118;2023-07-24T14:08:56;6.68;;;6.03;;
8331;SDS011;4203;48.144;14.118;2023-07-24T14:11:24;6.65;;;6.00;;
8331;SDS011;4203;48.144;14.118;2023-07-24T14:13:52;7.05;;;6.43;;
8331;SDS011;4203;48.144;14.118;2023-07-24T14:16:21;7.15;;;6.20;;
8331;SDS011;4203;48.144;14.118;2023-07-24T14:18:48;6.40;;;5.90;;
8331;SDS011;4203;48.144;14.118;2023-07-24T14:21:15;7.50;;;5.93;;
8331;SDS011;4203;48.144;14.118;2023-07-24T14:23:42;7.43;;;6.43;;
8331;SDS011;4203;48.144;14.118;2023-07-24T14:26:10;7.68;;;6.60;;
8331;SDS011;4203;48.144;14.118;2023-07-24T14:28:37;8.15;;;6.00;;
8331;SDS011;4203;48.144;14.118;2023-07-24T14:31:04;7.20;;;6.50;;
8331;SDS011;4203;48.144;14.118;2023-07-24T14:33:33;6.70;;;6.07;;
8331;SDS011;4203;48.144;14.118;2023-07-24T14:36:00;6.68;;;6.00;;
8331;SDS011;4203;48.144;14.118;2023-07-24T14:38:28;7.88;;;6.20;;
8331;SDS011;4203;48.144;14.118;2023-07-24T14:40:55;5.90;;;5.32;;
8331;SDS011;4203;48.144;14.118;2023-07-24T14:43:22;7.68;;;6.03;;
8331;SDS011;4203;48.144;14.118;2023-07-24T14:45:50;7.13;;;5.93;;
8331;SDS011;4203;48.144;14.118;2023-07-24T14:48:17;8.57;;;5.72;;
8331;SDS011;4203;48.144;14.118;2023-07-24T14:50:46;6.55;;;5.95;;
8331;SDS011;4203;48.144;14.118;2023-07-24T14:53:13;7.93;;;5.68;;
8331;SDS011;4203;48.144;14.118;2023-07-24T14:55:40;6.03;;;5.38;;
8331;SDS011;4203;48.144;14.118;2023-07-24T14:58:08;8.02;;;6.28;;
8331;SDS011;4203;48.144;14.118;2023-07-24T15:00:35;6.30;;;5.70;;
8331;SDS011;4203;48.144;14.118;2023-07-24T15:03:02;7.20;;;6.03;;
8331;SDS011;4203;48.144;14.118;2023-07-24T15:05:30;7.28;;;5.78;;